Time;durP1;ratioP1;P1;durP2;ratioP2;P2;SDS_P1;SDS_P2;PMS_P1;PMS_P2;Temp;Humidity;BMP_temperature;BMP_pressure;BME280_temperature;BME280_humidity;BME280_pressure;Samples;Min_cycle;Max_cycle;Signal;HPM_P1;HPM_P2
2022/02/11 06:18:44;;;;;;;4.88;2.70;;;;;;;4.51;73.03;100799.19;1029412;54;52417;-80
2022/02/11 06:19:46;;;;;;;5.35;3.28;;;;;;;4.46;73.59;100805.69;1087568;54;20629;-80
2022/02/11 06:20:52;;;;;;;4.82;2.83;;;;;;;4.48;73.81;100804.66;1087664;54;20026;-79
2022/02/11 06:21:54;;;;;;;4.57;2.97;;;;;;;4.31;74.18;100808.25;1087657;54;20042;-80
2022/02/11 06:23:01;;;;;;;6.32;3.03;;;;;;;4.26;74.17;100801.50;1087658;54;20034;-80
2022/02/11 06:24:03;;;;;;;6.60;3.80;;;;;;;4.00;75.14;100806.44;1092628;39;20433;-80
2022/02/11 06:25:11;;;;;;;5.55;3.55;;;;;;;3.94;75.62;100798.84;1087699;54;20038;-82
2022/02/11 06:26:16;;;;;;;6.88;3.70;;;;;;;3.82;75.90;100803.03;1087978;39;20557;-80
2022/02/11 06:27:20;;;;;;;5.35;3.78;;;;;;;3.71;76.72;100806.22;1089372;39;20457;-80
2022/02/11 06:28:24;;;;;;;7.25;3.72;;;;;;;3.88;76.14;100802.69;1087736;54;20034;-81
2022/02/11 06:29:31;;;;;;;5.95;3.83;;;;;;;3.72;76.76;100810.56;1087725;54;20622;-80
2022/02/11 06:30:36;;;;;;;6.32;3.92;;;;;;;3.78;76.45;100817.34;1087641;54;20054;-79
2022/02/11 06:31:44;;;;;;;6.95;4.20;;;;;;;3.83;76.45;100815.28;1087731;54;20031;-81
2022/02/11 06:32:48;;;;;;;5.28;3.63;;;;;;;3.70;76.66;100823.03;1087642;54;20564;-80
2022/02/11 06:33:54;;;;;;;5.63;3.95;;;;;;;3.73;76.75;100822.88;1087768;54;20034;-80
2022/02/11 06:34:58;;;;;;;8.00;4.03;;;;;;;3.63;76.67;100824.28;1087804;54;20046;-80
2022/02/11 06:36:11;;;;;;;6.30;4.00;;;;;;;3.64;77.35;100826.84;1087555;54;20062;-80
2022/02/11 06:37:12;;;;;;;7.55;4.72;;;;;;;3.56;77.11;100834.31;1087974;54;20043;-80
2022/02/11 06:38:23;;;;;;;8.20;4.18;;;;;;;3.56;77.25;100835.19;1087711;54;20046;-80
2022/02/11 06:39:25;;;;;;;;;;;;;;;3.52;77.87;100838.94;1087906;54;20054;-80
2022/02/11 06:40:31;;;;;;;6.88;4.47;;;;;;;3.65;77.30;100838.28;1087725;54;20550;-81
2022/02/11 06:41:33;;;;;;;6.80;4.60;;;;;;;3.45;77.72;100837.53;1092034;31;20477;-80
2022/02/11 06:42:45;;;;;;;7.47;4.70;;;;;;;3.51;77.95;100839.84;1087823;54;20038;-81
2022/02/11 06:44:02;;;;;;;6.25;4.07;;;;;;;3.58;77.65;100846.56;1087817;54;20076;-81
2022/02/11 06:46:32;;;;;;;7.10;5.10;;;;;;;3.59;77.60;100850.88;1087447;54;20034;-80
2022/02/11 06:47:37;;;;;;;7.43;4.55;;;;;;;3.56;77.57;100853.72;1088003;39;20415;-80
2022/02/11 06:48:41;;;;;;;6.82;4.30;;;;;;;3.74;77.18;100851.88;1087761;54;20756;-80
2022/02/11 06:50:02;;;;;;;;;;;;;;;;;;;;;
2022/02/11 06:51:11;;;;;;;7.50;4.95;;;;;;;3.57;77.94;100852.78;1087434;54;20055;-81
2022/02/11 06:54:03;;;;;;;7.20;4.72;;;;;;;3.49;78.36;100854.97;1087104;54;20042;-80
2022/02/11 06:55:34;;;;;;;8.25;4.95;;;;;;;3.39;78.73;100859.84;1088415;46;20038;-80
2022/02/11 06:56:37;;;;;;;6.70;4.32;;;;;;;3.51;78.36;100857.53;1088267;39;20536;-81
2022/02/11 06:57:42;;;;;;;7.18;4.43;;;;;;;3.61;78.05;100864.03;1090080;39;20441;-80
2022/02/11 06:58:45;;;;;;;7.07;4.40;;;;;;;3.73;77.47;100860.75;1087499;54;20034;-82
2022/02/11 06:59:50;;;;;;;6.93;3.90;;;;;;;3.74;77.36;100866.91;1087643;54;20015;-80
2022/02/11 07:00:54;;;;;;;7.18;3.80;;;;;;;3.89;76.83;100875.81;1087708;54;20050;-82
2022/02/11 07:01:57;;;;;;;6.07;3.70;;;;;;;3.87;76.95;100891.75;1087557;54;20027;-80
2022/02/11 07:03:02;;;;;;;6.75;4.05;;;;;;;3.72;77.09;100884.63;1087615;54;20038;-80
2022/02/11 07:04:04;;;;;;;5.45;3.42;;;;;;;3.87;76.72;100889.09;1087888;54;20041;-80
2022/02/11 07:05:12;;;;;;;6.70;3.35;;;;;;;4.01;76.20;100883.13;1087690;54;20042;-81
2022/02/11 07:06:16;;;;;;;6.32;3.60;;;;;;;4.06;76.18;100894.28;1087642;54;20030;-81
2022/02/11 07:07:21;;;;;;;6.03;3.40;;;;;;;3.95;76.07;100898.44;1087826;54;20041;-81
2022/02/11 07:08:27;;;;;;;6.90;3.33;;;;;;;3.99;76.08;100899.97;1087669;54;20083;-79
2022/02/11 07:09:29;;;;;;;6.32;3.63;;;;;;;4.01;76.16;100899.00;1087578;54;20026;-79
2022/02/11 07:10:35;;;;;;;5.30;3.10;;;;;;;3.95;76.41;100901.94;1087713;54;20553;-80
2022/02/11 07:11:39;;;;;;;5.80;3.70;;;;;;;4.01;76.38;100898.13;1087677;54;20075;-79
2022/02/11 07:12:45;;;;;;;6.55;3.53;;;;;;;4.02;76.10;100905.97;1087586;54;20030;-78
2022/02/11 07:13:49;;;;;;;6.60;3.35;;;;;;;3.84;76.68;100912.22;1087756;54;20038;-80
2022/02/11 07:14:51;;;;;;;5.97;3.45;;;;;;;3.75;76.78;100908.28;1087562;54;20059;-79
2022/02/11 07:16:05;;;;;;;5.55;3.00;;;;;;;3.81;76.56;100907.97;1087753;54;20026;-81
2022/02/11 07:17:11;;;;;;;5.50;3.55;;;;;;;3.88;76.40;100904.03;1087606;54;20039;-79
2022/02/11 07:18:13;;;;;;;6.65;3.10;;;;;;;3.98;75.90;100914.16;1088101;54;20055;-81
2022/02/11 07:19:17;;;;;;;5.45;3.28;;;;;;;3.93;76.45;100919.69;1088042;54;22166;-81
2022/02/11 07:20:24;;;;;;;4.97;2.65;;;;;;;3.78;76.46;100916.03;1088421;54;20030;-81
2022/02/11 07:21:29;;;;;;;7.03;3.30;;;;;;;3.90;76.42;100923.34;1092032;46;20030;-81
2022/02/11 07:22:34;;;;;;;5.07;3.00;;;;;;;3.95;75.98;100924.91;1088172;54;20047;-79
2022/02/11 07:23:39;;;;;;;4.60;2.50;;;;;;;3.86;75.77;100927.09;1087545;54;20034;-79
2022/02/11 07:24:43;;;;;;;5.30;2.90;;;;;;;3.72;76.19;100925.19;1087661;54;20030;-80
2022/02/11 07:25:47;;;;;;;6.30;2.90;;;;;;;3.80;76.13;100929.22;1087730;54;20042;-81
2022/02/11 07:26:55;;;;;;;5.43;2.85;;;;;;;3.79;75.92;100930.97;1087636;54;20045;-80
2022/02/11 07:27:59;;;;;;;6.00;2.83;;;;;;;3.87;75.72;100942.00;1087650;54;20092;-80
2022/02/11 07:29:04;;;;;;;8.25;3.25;;;;;;;3.78;75.72;100936.34;1087504;54;20038;-79
2022/02/11 07:30:13;;;;;;;11.05;3.10;;;;;;;3.81;75.79;100954.72;1088321;54;20035;-84
2022/02/11 07:31:17;;;;;;;9.75;2.92;;;;;;;3.81;75.89;100946.78;1088469;54;20059;-82
2022/02/11 07:32:21;;;;;;;6.60;3.17;;;;;;;3.84;75.75;100949.25;1090080;46;20022;-81
2022/02/11 07:33:29;;;;;;;8.63;2.63;;;;;;;3.82;75.65;100957.28;1088433;54;20022;-80
2022/02/11 07:34:34;;;;;;;4.95;2.60;;;;;;;4.01;75.33;100954.56;1089030;46;20034;-83
2022/02/11 07:35:48;;;;;;;5.60;2.53;;;;;;;4.00;75.05;100955.50;1088457;54;20018;-82
2022/02/11 07:36:49;;;;;;;4.95;2.50;;;;;;;4.06;74.70;100960.44;1092198;46;20082;-83
2022/02/11 07:38:03;;;;;;;7.95;3.58;;;;;;;4.10;74.68;100965.59;1089754;46;20030;-83
2022/02/11 07:39:05;;;;;;;5.60;2.63;;;;;;;4.23;74.57;100969.28;1088363;54;20048;-81
2022/02/11 07:40:13;;;;;;;4.53;2.45;;;;;;;4.15;74.49;100964.41;1088578;47;20033;-78
2022/02/11 07:41:17;;;;;;;6.03;2.72;;;;;;;4.16;74.65;100968.75;1088338;54;20049;-84
2022/02/11 07:42:39;;;;;;;4.47;2.40;;;;;;;4.22;74.12;100973.75;1088607;47;20018;-82
2022/02/11 07:43:45;;;;;;;5.47;2.50;;;;;;;4.07;74.73;100971.88;1088337;46;20042;-80
2022/02/11 07:44:47;;;;;;;5.97;2.60;;;;;;;4.01;74.58;100977.50;1087816;54;20086;-78
2022/02/11 07:45:51;;;;;;;6.28;2.10;;;;;;;4.17;74.05;100980.19;1087830;39;20645;-80
2022/02/11 07:46:54;;;;;;;4.95;1.95;;;;;;;4.26;73.83;100981.50;1087745;54;20035;-78
2022/02/11 07:47:59;;;;;;;5.10;2.03;;;;;;;4.22;73.86;100986.97;1087433;54;20058;-79
2022/02/11 07:49:05;;;;;;;5.53;2.55;;;;;;;4.26;73.87;100992.09;1087326;54;20059;-81
2022/02/11 07:50:12;;;;;;;8.88;4.07;;;;;;;4.35;73.59;100995.13;1087440;54;20036;-79
2022/02/11 07:51:19;;;;;;;5.80;2.75;;;;;;;4.25;73.99;100993.03;1087363;54;20052;-80
2022/02/11 07:52:22;;;;;;;3.80;1.98;;;;;;;4.39;73.44;100995.81;1087473;54;20035;-81
2022/02/11 07:53:29;;;;;;;6.25;2.70;;;;;;;4.34;73.43;100996.03;1087479;54;20035;-78
2022/02/11 07:54:33;;;;;;;7.00;2.40;;;;;;;4.30;73.37;100994.50;1087425;54;20038;-78
2022/02/11 07:55:40;;;;;;;5.75;2.10;;;;;;;4.28;73.09;101000.81;1087568;54;20675;-79
2022/02/11 07:56:42;;;;;;;5.00;1.92;;;;;;;4.09;73.52;101012.34;1087495;54;20038;-80
2022/02/11 07:58:13;;;;;;;5.35;2.25;;;;;;;4.13;73.29;101005.97;1087547;54;20050;-80
2022/02/11 07:59:23;;;;;;;5.80;2.20;;;;;;;4.01;73.83;101007.47;1087333;54;20026;-79
2022/02/11 08:00:37;;;;;;;4.78;1.98;;;;;;;4.00;73.64;101008.41;1087231;54;20094;-78
2022/02/11 08:01:42;;;;;;;5.57;1.83;;;;;;;4.14;73.56;101010.34;1087011;54;20018;-80
2022/02/11 08:02:50;;;;;;;5.90;2.03;;;;;;;4.26;73.26;101007.97;1087330;54;20030;-79
2022/02/11 08:03:56;;;;;;;5.10;1.88;;;;;;;4.10;73.80;101019.38;1087530;54;20035;-79
2022/02/11 08:04:57;;;;;;;7.05;2.00;;;;;;;4.04;73.64;101009.09;1087211;54;20071;-80
2022/02/11 08:06:06;;;;;;;7.28;2.00;;;;;;;4.19;73.25;101018.88;1087316;54;20042;-79
2022/02/11 08:07:10;;;;;;;4.32;1.90;;;;;;;4.36;72.89;101011.84;1087409;54;20563;-79
2022/02/11 08:08:23;;;;;;;5.60;2.30;;;;;;;4.26;73.05;101014.13;1087449;54;20059;-80
2022/02/11 08:09:27;;;;;;;6.72;2.42;;;;;;;4.00;73.69;101013.69;1087483;54;20035;-80
2022/02/11 08:10:32;;;;;;;6.35;2.28;;;;;;;3.86;74.28;101011.75;1087531;54;20580;-81
2022/02/11 08:12:00;;;;;;;6.18;2.65;;;;;;;3.80;74.17;101012.06;1087505;54;20094;-79
2022/02/11 08:13:16;;;;;;;4.13;2.03;;;;;;;3.80;74.04;101021.78;1096328;47;20069;-82
2022/02/11 08:14:21;;;;;;;8.20;2.22;;;;;;;3.77;74.44;101017.50;1089252;47;20022;-80
2022/02/11 08:15:29;;;;;;;4.60;1.90;;;;;;;3.81;74.26;101019.06;1087873;54;20033;-79
2022/02/11 08:16:38;;;;;;;6.57;2.17;;;;;;;3.96;73.76;101011.28;1087648;54;20128;-79
2022/02/11 08:19:18;;;;;;;6.38;2.55;;;;;;;3.88;73.81;101030.19;1087373;54;20034;-79
2022/02/11 08:20:23;;;;;;;5.70;2.40;;;;;;;3.90;73.70;101039.75;1087248;54;20034;-80
2022/02/11 08:21:28;;;;;;;4.72;2.13;;;;;;;3.83;73.95;101035.72;1087493;54;20042;-79
2022/02/11 08:22:44;;;;;;;9.13;2.67;;;;;;;3.96;73.67;101045.69;1087366;54;20046;-80
2022/02/11 08:23:49;;;;;;;5.55;2.42;;;;;;;4.14;73.35;101047.41;1087444;54;20038;-80
2022/02/11 08:24:57;;;;;;;5.35;2.58;;;;;;;4.01;73.12;101043.66;1087632;54;20052;-79
2022/02/11 08:26:02;;;;;;;6.85;2.80;;;;;;;3.89;73.27;101048.63;1087272;54;20039;-80
2022/02/11 08:27:04;;;;;;;10.10;2.97;;;;;;;3.88;73.46;101046.91;1087392;54;20030;-79
2022/02/11 08:28:08;;;;;;;10.07;3.10;;;;;;;3.92;73.03;101050.25;1087360;54;20026;-80
2022/02/11 08:29:25;;;;;;;6.60;2.25;;;;;;;4.11;72.95;101050.19;1087262;54;20050;-80
2022/02/11 08:30:33;;;;;;;6.00;3.08;;;;;;;4.10;72.87;101051.13;1086931;54;20110;-81
2022/02/11 08:31:54;;;;;;;8.10;2.97;;;;;;;4.10;72.80;101050.28;1087207;54;20042;-81
2022/02/11 08:36:30;;;;;;;6.40;2.50;;;;;;;4.02;72.34;101048.00;1086830;54;20030;-80
2022/02/11 08:37:52;;;;;;;8.80;2.80;;;;;;;4.01;72.06;101056.88;1087317;54;20163;-80
2022/02/11 08:38:59;;;;;;;9.68;3.85;;;;;;;4.15;71.82;101059.69;1087132;54;20027;-80
2022/02/11 08:40:15;;;;;;;6.10;3.35;;;;;;;4.11;71.55;101055.47;1087592;54;20030;-80
2022/02/11 08:41:42;;;;;;;5.90;2.70;;;;;;;4.09;71.32;101065.28;1087513;54;20026;-80
2022/02/11 08:43:02;;;;;;;6.70;2.92;;;;;;;4.11;70.71;101075.81;1086820;54;20034;-80
2022/02/11 08:44:25;;;;;;;7.28;2.53;;;;;;;4.15;70.63;101072.06;1087226;54;20027;-81
2022/02/11 08:45:43;;;;;;;7.53;3.17;;;;;;;4.20;70.96;101075.34;1086827;54;20025;-80
2022/02/11 08:46:48;;;;;;;11.02;3.10;;;;;;;4.19;70.88;101078.91;1086938;54;20046;-81
2022/02/11 08:47:50;;;;;;;8.07;3.03;;;;;;;4.30;70.61;101081.00;1087475;54;20011;-82
2022/02/11 08:48:55;;;;;;;11.00;3.10;;;;;;;4.30;70.58;101092.44;1087327;54;20691;-80
2022/02/11 08:50:00;;;;;;;6.40;2.80;;;;;;;4.37;70.50;101087.69;1087281;54;20042;-82
2022/02/11 08:51:05;;;;;;;6.88;2.92;;;;;;;4.49;69.84;101096.78;1087189;54;20034;-82
2022/02/11 08:52:13;;;;;;;6.22;2.67;;;;;;;4.57;69.63;101093.75;1086987;54;20039;-81
2022/02/11 08:53:17;;;;;;;8.40;3.35;;;;;;;4.60;69.63;101097.09;1086987;54;20616;-79
2022/02/11 08:54:22;;;;;;;5.75;2.72;;;;;;;4.72;69.52;101086.78;1087295;54;20077;-80
2022/02/11 08:55:27;;;;;;;8.75;2.92;;;;;;;4.62;69.35;101089.06;1087028;54;20031;-81
2022/02/11 08:56:29;;;;;;;7.47;3.10;;;;;;;4.48;68.25;101093.28;1086891;54;20034;-80
2022/02/11 08:57:34;;;;;;;7.65;2.70;;;;;;;4.51;68.77;101097.56;1086698;54;20157;-82
2022/02/11 08:58:38;;;;;;;9.45;3.30;;;;;;;4.59;68.20;101103.31;1087010;54;20045;-80
2022/02/11 08:59:43;;;;;;;8.63;3.03;;;;;;;4.75;68.42;101108.66;1086681;54;20022;-80
2022/02/11 09:00:45;;;;;;;8.35;3.28;;;;;;;4.76;67.97;101101.59;1086872;54;20034;-79
2022/02/11 09:01:49;;;;;;;9.27;3.15;;;;;;;4.73;68.05;101113.19;1086903;54;20031;-81
2022/02/11 09:02:53;;;;;;;7.10;3.72;;;;;;;4.91;67.73;101107.88;1087286;54;20042;-80
2022/02/11 09:03:58;;;;;;;7.22;2.88;;;;;;;4.89;66.92;101107.09;1089652;46;20044;-81
2022/02/11 09:04:59;;;;;;;9.73;3.17;;;;;;;4.97;67.26;101104.88;1086761;54;20573;-82
2022/02/11 09:06:05;;;;;;;7.60;2.63;;;;;;;5.08;67.48;101107.81;1087093;54;20064;-81
2022/02/11 09:07:07;;;;;;;7.82;3.85;;;;;;;5.07;67.33;101106.09;1087082;46;20038;-81
2022/02/11 09:08:12;;;;;;;6.40;2.70;;;;;;;4.99;66.84;101113.59;1086937;54;20027;-80
2022/02/11 09:09:20;;;;;;;7.35;2.65;;;;;;;4.96;66.22;101119.91;1089373;39;20536;-81
2022/02/11 09:10:48;;;;;;;6.35;2.65;;;;;;;5.14;66.12;101123.38;1088074;54;20027;-81
2022/02/11 09:11:53;;;;;;;7.40;2.50;;;;;;;5.24;66.12;101128.19;1088145;54;20010;-82
2022/02/11 09:13:07;;;;;;;9.38;2.95;;;;;;;5.02;66.02;101131.97;1088283;46;20014;-81
2022/02/11 09:14:14;;;;;;;10.35;3.25;;;;;;;4.90;66.44;101141.44;1087448;54;20045;-81
2022/02/11 09:15:16;;;;;;;8.27;2.70;;;;;;;4.80;66.26;101140.22;1087048;54;20616;-81
2022/02/11 09:16:24;;;;;;;9.85;2.90;;;;;;;4.76;66.32;101138.69;1087113;54;20034;-81
2022/02/11 09:17:26;;;;;;;11.32;3.33;;;;;;;4.64;66.29;101141.03;1087079;54;20047;-81
2022/02/11 09:18:31;;;;;;;8.07;2.92;;;;;;;4.52;66.41;101144.31;1087004;54;20070;-79
2022/02/11 09:19:35;;;;;;;6.80;2.90;;;;;;;4.64;66.48;101137.50;1087006;54;20026;-81
2022/02/11 09:20:46;;;;;;;11.27;2.78;;;;;;;4.66;66.58;101146.25;1087058;54;20034;-80
2022/02/11 09:21:50;;;;;;;;;;;;;;;4.63;66.73;101151.72;1087895;39;20448;-79
2022/02/11 09:22:58;;;;;;;8.27;2.90;;;;;;;4.65;66.80;101144.53;1087338;54;19943;-79
2022/02/11 09:24:08;;;;;;;8.38;2.88;;;;;;;4.56;66.92;101152.94;1087038;54;20034;-79
2022/02/11 09:25:18;;;;;;;7.82;2.28;;;;;;;4.46;66.80;101156.06;1087245;54;20034;-79
2022/02/11 09:26:24;;;;;;;8.43;3.08;;;;;;;4.56;66.95;101163.53;1087651;39;20471;-78
2022/02/11 09:27:34;;;;;;;8.82;3.20;;;;;;;4.59;66.83;101158.09;1087463;54;20030;-78
2022/02/11 09:28:42;;;;;;;7.20;2.80;;;;;;;4.59;66.95;101160.75;1087481;54;20617;-78
2022/02/11 09:29:50;;;;;;;6.85;3.15;;;;;;;4.62;66.83;101155.28;1087431;54;20054;-80
2022/02/11 09:31:01;;;;;;;10.57;3.55;;;;;;;4.58;66.43;101145.78;1087809;54;20061;-80
2022/02/11 09:32:29;;;;;;;6.97;3.25;;;;;;;4.48;66.39;101150.72;1087239;54;20030;-81
2022/02/11 09:33:38;;;;;;;7.50;2.85;;;;;;;4.72;66.04;101163.59;1087317;54;20046;-81
2022/02/11 09:35:03;;;;;;;8.02;3.47;;;;;;;4.80;65.15;101151.69;1087124;54;20103;-81
2022/02/11 09:36:08;;;;;;;6.68;2.90;;;;;;;4.84;64.73;101169.13;1087114;54;20048;-80
2022/02/11 09:37:13;;;;;;;7.22;3.30;;;;;;;4.97;65.13;101168.50;1087268;54;20063;-80
2022/02/11 09:38:22;;;;;;;7.55;2.88;;;;;;;5.17;64.72;101161.25;1087461;54;20037;-81
2022/02/11 09:39:24;;;;;;;8.45;3.25;;;;;;;5.38;64.28;101173.38;1090623;39;20543;-80
2022/02/11 09:40:33;;;;;;;8.88;3.28;;;;;;;5.26;63.97;101164.25;1087138;54;20038;-81
2022/02/11 09:41:39;;;;;;;10.15;3.40;;;;;;;5.26;63.87;101166.06;1087080;54;20035;-81
2022/02/11 09:42:41;;;;;;;9.32;2.90;;;;;;;5.26;63.49;101168.72;1087265;54;20046;-81
2022/02/11 09:43:48;;;;;;;9.68;3.38;;;;;;;5.27;63.84;101168.63;1087307;54;20037;-80
2022/02/11 09:44:53;;;;;;;7.53;2.53;;;;;;;5.35;63.81;101167.34;1087107;54;20044;-83
2022/02/11 09:46:04;;;;;;;12.10;3.58;;;;;;;5.31;63.80;101166.66;1086808;54;20063;-79
2022/02/11 09:47:17;;;;;;;15.57;3.25;;;;;;;5.29;63.74;101163.25;1086637;54;20567;-82
2022/02/11 09:48:23;;;;;;;7.88;3.45;;;;;;;5.42;63.64;101174.91;1087572;54;20576;-80
2022/02/11 09:49:27;;;;;;;7.88;2.58;;;;;;;5.38;63.36;101178.69;1086913;54;20046;-80
2022/02/11 09:50:34;;;;;;;9.57;3.42;;;;;;;5.26;63.39;101176.69;1086899;54;20031;-80
2022/02/11 09:51:38;;;;;;;9.25;3.47;;;;;;;5.20;63.59;101177.00;1086958;54;20031;-81
2022/02/11 09:52:45;;;;;;;6.72;2.60;;;;;;;5.29;63.85;101169.41;1086459;54;20050;-80
2022/02/11 09:53:48;;;;;;;9.25;2.60;;;;;;;5.44;63.64;101177.47;1087172;54;20042;-81
2022/02/11 09:55:31;;;;;;;11.55;3.05;;;;;;;5.35;63.56;101175.31;1088218;46;20043;-81
2022/02/11 09:56:22;;;;;;;9.40;2.92;;;;;;;5.55;63.23;101176.88;1087206;54;20031;-81
2022/02/11 09:57:28;;;;;;;11.55;2.92;;;;;;;5.40;63.58;101173.28;1087191;54;20062;-79
2022/02/11 09:58:35;;;;;;;7.38;2.90;;;;;;;5.42;63.32;101177.56;1087752;54;20047;-83
2022/02/11 09:59:53;;;;;;;8.27;2.95;;;;;;;5.40;63.51;101173.28;1089356;46;20037;-81
2022/02/11 10:01:00;;;;;;;8.40;2.78;;;;;;;5.36;63.78;101174.38;1091268;46;20014;-81
2022/02/11 10:02:06;;;;;;;11.38;3.47;;;;;;;5.26;63.93;101172.22;1090436;39;20429;-81
2022/02/11 10:03:16;;;;;;;9.00;2.78;;;;;;;5.27;63.86;101170.44;1087104;54;20046;-81
2022/02/11 10:04:28;;;;;;;9.57;3.28;;;;;;;5.18;63.84;101187.69;1087006;54;20040;-80
2022/02/11 10:05:33;;;;;;;8.93;3.15;;;;;;;5.18;63.93;101184.19;1087333;54;20042;-81
2022/02/11 10:06:37;;;;;;;11.10;3.00;;;;;;;5.19;63.90;101183.25;1087192;54;20038;-82
2022/02/11 10:07:45;;;;;;;5.93;2.97;;;;;;;5.24;64.25;101190.00;1087204;54;20043;-80
2022/02/11 10:08:50;;;;;;;7.47;2.50;;;;;;;5.23;63.94;101180.34;1087550;54;20761;-82
2022/02/11 10:09:55;;;;;;;8.82;3.17;;;;;;;5.17;64.11;101190.44;1087361;54;20015;-79
2022/02/11 10:11:00;;;;;;;7.80;2.85;;;;;;;5.16;64.11;101189.56;1087024;54;20030;-80
2022/02/11 10:12:07;;;;;;;8.23;2.75;;;;;;;5.05;63.86;101190.13;1087118;54;20015;-80
2022/02/11 10:13:13;;;;;;;12.00;3.00;;;;;;;5.08;64.03;101194.41;1088663;31;20622;-80
2022/02/11 10:14:26;;;;;;;14.13;3.78;;;;;;;5.27;63.68;101199.59;1087241;54;20053;-80
2022/02/11 10:15:28;;;;;;;7.32;2.70;;;;;;;5.40;63.41;101205.94;1087514;54;20027;-80
2022/02/11 10:16:36;;;;;;;7.72;2.80;;;;;;;5.49;63.31;101209.91;1087256;54;20549;-81
2022/02/11 10:17:45;;;;;;;10.45;3.63;;;;;;;5.37;63.54;101205.25;1087600;39;20433;-79
2022/02/11 10:18:53;;;;;;;7.82;2.50;;;;;;;5.24;63.21;101213.03;1088912;39;20511;-79
2022/02/11 10:20:00;;;;;;;9.30;2.92;;;;;;;5.30;63.50;101223.28;1086733;54;20755;-80
2022/02/11 10:21:04;;;;;;;9.90;2.92;;;;;;;5.53;62.98;101216.75;1089228;46;20053;-80
2022/02/11 10:22:10;;;;;;;7.88;3.13;;;;;;;5.50;63.37;101216.06;1087793;54;20631;-81
2022/02/11 10:23:23;;;;;;;10.25;3.33;;;;;;;5.29;63.19;101216.28;1087528;54;20018;-80
2022/02/11 10:24:27;;;;;;;10.45;3.42;;;;;;;5.22;63.63;101212.25;1088177;46;20918;-81
2022/02/11 10:27:41;;;;;;;9.35;3.50;;;;;;;5.13;64.26;101229.50;1087833;54;20083;-80
2022/02/11 10:28:56;;;;;;;11.70;2.88;;;;;;;5.08;64.14;101223.56;1088420;54;20034;-80
2022/02/11 10:29:59;;;;;;;11.45;3.88;;;;;;;5.11;64.37;101231.38;1088015;54;20022;-80
2022/02/11 10:31:08;;;;;;;12.70;2.80;;;;;;;5.11;64.31;101234.88;1088060;54;20049;-80
2022/02/11 10:32:12;;;;;;;10.40;3.15;;;;;;;5.19;64.17;101231.81;1087968;54;20038;-81
2022/02/11 10:33:18;;;;;;;8.25;3.10;;;;;;;5.23;64.03;101232.50;1087554;54;20030;-80
2022/02/11 10:34:22;;;;;;;7.88;2.80;;;;;;;5.28;63.88;101230.50;1087730;54;20046;-80
2022/02/11 10:35:29;;;;;;;10.15;3.08;;;;;;;5.23;63.44;101233.38;1087819;54;20031;-81
2022/02/11 10:36:38;;;;;;;8.98;2.92;;;;;;;5.31;63.49;101240.91;1087649;54;20046;-81
2022/02/11 10:38:06;;;;;;;10.15;3.20;;;;;;;5.19;63.36;101237.13;1087659;54;20062;-81
2022/02/11 10:39:13;;;;;;;7.47;3.28;;;;;;;5.26;63.79;101237.66;1087688;54;20042;-80
2022/02/11 10:40:31;;;;;;;11.65;3.50;;;;;;;5.28;63.35;101241.94;1087579;54;20031;-80
2022/02/11 10:41:35;;;;;;;8.52;3.20;;;;;;;5.40;63.20;101240.41;1087665;54;20038;-81
2022/02/11 10:42:48;;;;;;;8.75;3.03;;;;;;;5.57;62.88;101241.34;1089069;46;20034;-81
2022/02/11 10:43:51;;;;;;;6.85;2.70;;;;;;;5.62;62.57;101240.13;1087653;54;20035;-80
2022/02/11 10:44:55;;;;;;;13.02;3.50;;;;;;;5.37;63.19;101245.03;1087382;54;20026;-81
2022/02/11 10:46:01;;;;;;;6.85;3.20;;;;;;;5.53;62.93;101248.56;1087559;54;20018;-81
2022/02/11 10:47:08;;;;;;;6.60;2.47;;;;;;;5.52;62.66;101238.94;1087535;54;20038;-82
2022/02/11 10:48:11;;;;;;;8.43;2.97;;;;;;;5.41;62.60;101239.47;1087602;54;20034;-81
2022/02/11 10:49:16;;;;;;;10.15;3.20;;;;;;;5.25;62.84;101242.09;1087452;54;20031;-81
2022/02/11 10:50:17;;;;;;;9.05;2.72;;;;;;;5.24;62.73;101237.72;1087660;54;20040;-82
2022/02/11 10:51:24;;;;;;;7.70;2.58;;;;;;;5.37;62.49;101240.59;1087693;54;20031;-80
2022/02/11 10:52:28;;;;;;;10.15;2.80;;;;;;;5.46;62.20;101240.13;1087742;47;20039;-80
2022/02/11 10:53:31;;;;;;;9.25;2.85;;;;;;;5.29;62.34;101232.22;1087646;54;20034;-80
2022/02/11 10:54:36;;;;;;;8.27;2.55;;;;;;;5.50;62.45;101240.81;1087663;54;20043;-81
2022/02/11 10:55:47;;;;;;;9.63;3.42;;;;;;;5.30;62.72;101233.88;1087606;54;20030;-81
2022/02/11 10:56:54;;;;;;;8.10;2.47;;;;;;;5.47;62.25;101233.88;1087542;54;20061;-81
2022/02/11 10:58:01;;;;;;;7.78;2.90;;;;;;;5.69;61.88;101230.03;1087682;54;20038;-82
2022/02/11 10:59:05;;;;;;;6.85;2.58;;;;;;;5.82;61.61;101237.31;1087627;54;20046;-81
2022/02/11 11:00:08;;;;;;;7.43;2.60;;;;;;;5.72;61.73;101227.22;1087666;54;20019;-81
2022/02/11 11:01:12;;;;;;;7.72;2.78;;;;;;;5.72;61.79;101229.88;1087363;54;20037;-80
2022/02/11 11:02:19;;;;;;;7.55;2.95;;;;;;;5.60;61.88;101228.75;1087275;54;20632;-80
2022/02/11 11:03:21;;;;;;;12.73;3.92;;;;;;;5.54;61.57;101241.50;1087334;54;20030;-80
2022/02/11 11:04:25;;;;;;;9.00;3.33;;;;;;;5.59;61.70;101234.13;1087432;54;20039;-80
2022/02/11 11:05:29;;;;;;;5.88;3.22;;;;;;;5.63;61.66;101236.53;1087546;54;20035;-81
2022/02/11 11:06:31;;;;;;;7.55;2.67;;;;;;;5.65;61.89;101236.47;1091565;39;20646;-80
2022/02/11 11:07:36;;;;;;;11.02;3.20;;;;;;;5.61;61.50;101229.59;1087517;54;20045;-81
2022/02/11 11:08:39;;;;;;;6.60;3.22;;;;;;;5.72;61.22;101232.53;1088406;39;20619;-81
2022/02/11 11:09:47;;;;;;;7.38;3.03;;;;;;;5.63;61.28;101233.03;1087468;54;20049;-79
2022/02/11 11:10:54;;;;;;;8.80;3.00;;;;;;;5.59;61.86;101229.69;1087321;54;20034;-82
2022/02/11 11:12:00;;;;;;;13.70;3.47;;;;;;;5.59;62.13;101228.81;1087508;54;20049;-81
2022/02/11 11:13:06;;;;;;;9.95;3.42;;;;;;;5.57;62.18;101236.88;1087575;54;20035;-82
2022/02/11 11:14:12;;;;;;;6.50;3.58;;;;;;;5.69;62.38;101237.16;1087668;54;20042;-82
2022/02/11 11:15:16;;;;;;;8.27;2.80;;;;;;;5.62;62.52;101233.97;1087627;54;20034;-81
2022/02/11 11:16:21;;;;;;;16.25;3.72;;;;;;;5.55;62.64;101233.44;1088832;39;20652;-80
2022/02/11 11:17:25;;;;;;;11.88;3.10;;;;;;;5.69;62.22;101238.00;1087472;54;20045;-81
2022/02/11 11:18:30;;;;;;;8.27;3.22;;;;;;;5.61;62.53;101238.44;1087697;54;20025;-81
2022/02/11 11:19:36;;;;;;;7.88;2.97;;;;;;;5.75;62.15;101240.31;1087706;54;20620;-82
2022/02/11 11:20:40;;;;;;;7.90;3.25;;;;;;;5.81;62.06;101244.41;1087139;54;20078;-80
2022/02/11 11:21:47;;;;;;;6.57;2.60;;;;;;;5.90;61.71;101248.38;1087784;54;20094;-82
2022/02/11 11:22:54;;;;;;;9.35;3.20;;;;;;;5.91;61.83;101250.09;1089213;39;20268;-81
2022/02/11 11:24:00;;;;;;;7.90;3.55;;;;;;;5.87;61.91;101259.16;1087778;54;20035;-81
2022/02/11 11:25:05;;;;;;;9.05;3.25;;;;;;;5.82;62.02;101254.09;1087688;54;20059;-80
2022/02/11 11:26:10;;;;;;;8.57;3.28;;;;;;;5.93;61.75;101256.16;1087618;54;20042;-81
2022/02/11 11:27:14;;;;;;;7.85;3.15;;;;;;;5.91;61.65;101252.75;1087526;54;20031;-81
2022/02/11 11:28:40;;;;;;;10.20;3.30;;;;;;;6.03;61.33;101259.19;1087775;54;20042;-81
2022/02/11 11:29:44;;;;;;;9.13;2.78;;;;;;;5.94;60.78;101249.94;1087646;54;20733;-78
2022/02/11 11:30:53;;;;;;;10.27;3.03;;;;;;;5.81;60.43;101248.88;1087441;54;20631;-80
2022/02/11 11:31:59;;;;;;;9.15;2.75;;;;;;;5.75;60.43;101248.28;1087414;54;20030;-81
2022/02/11 11:33:27;;;;;;;9.75;3.65;;;;;;;5.67;60.75;101246.97;1087523;54;20046;-80
2022/02/11 11:34:39;;;;;;;11.77;3.47;;;;;;;5.76;60.76;101257.09;1087665;54;20067;-80
2022/02/11 11:36:04;;;;;;;9.65;3.67;;;;;;;5.82;60.87;101261.22;1088130;46;20050;-82
2022/02/11 11:37:11;;;;;;;9.02;2.90;;;;;;;5.84;60.84;101256.69;1087742;54;20059;-81
2022/02/11 11:38:13;;;;;;;8.52;3.20;;;;;;;5.75;60.86;101256.25;1088444;39;20900;-82
2022/02/11 11:39:19;;;;;;;9.02;3.50;;;;;;;5.76;61.24;101257.94;1087677;54;20038;-80
2022/02/11 11:40:27;;;;;;;5.32;2.58;;;;;;;5.87;61.19;101261.78;1087773;54;20046;-80
2022/02/11 11:41:35;;;;;;;7.13;2.80;;;;;;;6.01;61.05;101256.63;1087819;54;20038;-81
2022/02/11 11:42:39;;;;;;;7.22;2.83;;;;;;;6.00;60.94;101256.72;1087691;54;20034;-81
2022/02/11 11:43:45;;;;;;;7.82;2.65;;;;;;;6.02;60.92;101258.34;1087681;54;20034;-80
2022/02/11 11:44:53;;;;;;;7.07;3.10;;;;;;;5.99;60.79;101261.16;1087696;54;20059;-80
2022/02/11 11:46:03;;;;;;;7.63;2.70;;;;;;;5.99;60.06;101257.63;1088250;39;20843;-81